Vichy, Missouri
Current Conditions -  °F | °C
As of 11:53 AM on Thursday 30 Oct 2014 (Local Time) from KVIH Reporting Station
Overcast Overcast  
Wind Chill: 53°   Ceiling: 8000
Heat Index: 53°   Visibility: 10mi
Dew Point: 36°   Wind: 12mph
Humidity: 52%   Direction: 200°SSW
Pressure: 30.08"   Gusts: NA
Location:  38.11°N, 91.76°W
Report Text: KVIH 301653Z AUTO 20010KT 10SM OVC080 12/02 A3008 RMK AO2 SLP188 T01170022
Loading
Personal Weather Stations






























Interactive Weather Map
Tropical Storm Tracking
New forecast layout! Learn more

10-Day Weather Forecast

Advertisements
Track Severe Weather on mobile